Time;durP1;ratioP1;P1;durP2;ratioP2;P2;SDS_P1;SDS_P2;PMS_P1;PMS_P2;Temp;Humidity;BMP_temperature;BMP_pressure;BME280_temperature;BME280_humidity;BME280_pressure;Samples;Min_cycle;Max_cycle;Signal;HPM_P1;HPM_P2
2022/10/04 00:04:04;;;;;;;4.68;3.15;;;12.60;99.90;;;;;;10040578;28;20029;-66
2022/10/04 00:09:03;;;;;;;4.47;2.80;;;12.50;99.90;;;;;;10041590;28;20488;-68
2022/10/04 00:14:03;;;;;;;6.55;3.72;;;12.60;99.90;;;;;;10041825;28;20030;-67
2022/10/04 00:19:02;;;;;;;8.43;4.25;;;12.70;99.90;;;;;;10036971;28;20022;-66
2022/10/04 00:24:09;;;;;;;5.20;3.30;;;12.70;99.90;;;;;;10043722;28;20107;-67
2022/10/04 00:29:26;;;;;;;9.05;3.42;;;12.70;99.90;;;;;;10033628;28;20534;-71
2022/10/04 00:34:47;;;;;;;5.07;3.60;;;12.60;99.90;;;;;;10034664;28;20048;-64
2022/10/04 00:39:41;;;;;;;5.85;3.38;;;12.50;99.90;;;;;;10024550;28;20025;-67
2022/10/04 00:44:41;;;;;;;6.57;4.60;;;12.50;99.90;;;;;;10050915;28;20025;-68
2022/10/04 00:49:39;;;;;;;7.13;4.35;;;12.60;99.90;;;;;;10039484;28;20415;-64
2022/10/04 00:54:35;;;;;;;4.93;3.25;;;12.60;99.90;;;;;;10042314;28;20435;-65
2022/10/04 00:59:39;;;;;;;4.53;2.85;;;12.50;99.90;;;;;;10038913;28;20021;-65
2022/10/04 01:04:52;;;;;;;7.50;4.57;;;12.50;99.90;;;;;;10041500;28;20029;-65
2022/10/04 01:09:52;;;;;;;6.32;3.75;;;12.50;99.90;;;;;;10049233;28;20022;-65
2022/10/04 01:15:01;;;;;;;5.88;3.58;;;12.50;99.90;;;;;;10043049;28;20030;-63
2022/10/04 01:19:53;;;;;;;8.25;3.70;;;12.30;99.90;;;;;;10047396;28;20483;-66
2022/10/04 01:24:44;;;;;;;6.93;3.83;;;12.20;99.90;;;;;;10041183;28;20072;-66
2022/10/04 01:29:35;;;;;;;5.05;3.85;;;12.40;99.90;;;;;;10040636;28;20234;-65
2022/10/04 01:34:29;;;;;;;6.90;3.03;;;12.30;99.90;;;;;;10042310;28;20047;-65
2022/10/04 01:39:22;;;;;;;8.63;3.17;;;12.30;99.90;;;;;;10039769;28;20121;-66
2022/10/04 01:44:37;;;;;;;5.70;3.65;;;12.10;99.90;;;;;;10055737;28;20216;-67
2022/10/04 01:49:32;;;;;;;5.77;3.13;;;12.10;99.90;;;;;;10053457;28;20018;-65
2022/10/04 01:54:35;;;;;;;4.68;3.03;;;12.20;99.90;;;;;;10047915;28;20049;-65
2022/10/04 01:59:30;;;;;;;8.52;3.67;;;12.10;99.90;;;;;;10046258;28;20287;-65
2022/10/04 02:04:29;;;;;;;;;;;12.20;99.90;;;;;;10047541;28;20100;-66
2022/10/04 02:09:29;;;;;;;6.05;3.60;;;12.10;99.90;;;;;;10050059;28;19905;-65
2022/10/04 02:14:25;;;;;;;7.22;3.55;;;12.10;99.90;;;;;;10060113;28;20040;-65
2022/10/04 02:19:16;;;;;;;4.65;3.20;;;12.00;99.90;;;;;;10059949;28;20160;-66
2022/10/04 02:24:09;;;;;;;8.55;3.97;;;12.00;99.90;;;;;;10059079;28;20163;-61
2022/10/04 02:29:00;;;;;;;8.27;3.67;;;12.00;99.90;;;;;;10044556;28;20397;-65
2022/10/04 02:33:54;;;;;;;5.00;3.53;;;11.80;99.90;;;;;;10040803;28;20059;-64
2022/10/04 02:39:05;;;;;;;6.22;3.55;;;11.80;99.90;;;;;;10040738;28;20460;-63
2022/10/04 02:44:02;;;;;;;5.28;3.58;;;11.80;99.90;;;;;;10055323;28;20053;-64
2022/10/04 02:48:57;;;;;;;5.65;3.33;;;11.70;99.90;;;;;;10051101;28;20117;-63
2022/10/04 02:53:50;;;;;;;7.22;3.03;;;11.80;99.90;;;;;;10051466;28;20176;-63
2022/10/04 02:58:43;;;;;;;5.72;3.97;;;11.70;99.90;;;;;;10040354;28;20037;-64
2022/10/04 03:03:38;;;;;;;7.40;3.45;;;11.60;99.90;;;;;;10045525;28;20439;-63
2022/10/04 03:08:33;;;;;;;6.15;3.47;;;11.70;99.90;;;;;;10054864;28;20048;-64
2022/10/04 03:13:25;;;;;;;5.25;3.10;;;11.70;99.90;;;;;;10052111;28;20060;-63
2022/10/04 03:18:18;;;;;;;9.65;3.58;;;11.60;99.90;;;;;;10049679;28;20057;-63
2022/10/04 03:23:11;;;;;;;7.38;3.47;;;11.50;99.90;;;;;;10049938;28;20076;-63
2022/10/04 03:28:02;;;;;;;8.63;4.40;;;11.50;99.90;;;;;;10048300;28;20057;-64
2022/10/04 03:32:53;;;;;;;9.02;3.67;;;11.50;99.90;;;;;;10052230;28;20041;-63
2022/10/04 03:37:44;;;;;;;5.68;3.60;;;11.50;99.90;;;;;;10033770;28;20037;-64
2022/10/04 03:42:36;;;;;;;5.45;3.40;;;11.50;99.90;;;;;;10055700;28;20017;-63
2022/10/04 03:47:32;;;;;;;5.18;2.78;;;11.50;99.90;;;;;;10053189;28;20022;-64
2022/10/04 03:52:31;;;;;;;5.47;3.47;;;11.50;99.90;;;;;;10047753;28;20033;-64
2022/10/04 03:57:22;;;;;;;7.45;3.90;;;11.50;99.90;;;;;;10038789;28;20029;-63
2022/10/04 04:02:29;;;;;;;5.38;3.75;;;11.40;99.90;;;;;;10030728;28;20026;-68
2022/10/04 04:07:29;;;;;;;6.93;3.17;;;11.30;99.90;;;;;;10042680;28;20028;-64
2022/10/04 04:12:26;;;;;;;7.97;3.35;;;11.30;99.90;;;;;;10050506;28;20100;-69
2022/10/04 04:17:35;;;;;;;6.22;3.58;;;11.20;99.90;;;;;;10038882;28;20456;-68
2022/10/04 04:22:30;;;;;;;7.30;3.65;;;11.20;99.90;;;;;;10042818;28;20059;-67
2022/10/04 04:27:24;;;;;;;8.07;3.67;;;11.20;99.90;;;;;;10048296;28;20092;-66
2022/10/04 04:32:23;;;;;;;7.28;3.33;;;11.30;99.90;;;;;;10041009;28;20107;-66
2022/10/04 04:37:13;;;;;;;8.02;3.75;;;11.30;99.90;;;;;;10030933;28;20091;-68
2022/10/04 04:42:09;;;;;;;7.07;3.88;;;11.30;99.90;;;;;;10053969;28;20029;-68
2022/10/04 04:47:04;;;;;;;7.90;4.32;;;11.30;99.90;;;;;;10049355;28;20026;-66
2022/10/04 04:51:56;;;;;;;6.03;3.70;;;11.20;99.90;;;;;;10049591;28;20026;-68
2022/10/04 04:56:51;;;;;;;7.07;3.33;;;11.00;99.90;;;;;;10042200;28;20097;-69
2022/10/04 05:01:48;;;;;;;5.43;4.10;;;11.10;99.90;;;;;;10030868;28;20022;-66
2022/10/04 05:06:41;;;;;;;5.50;3.05;;;11.00;99.90;;;;;;10048347;28;20050;-69
2022/10/04 05:11:36;;;;;;;6.97;2.88;;;11.00;99.90;;;;;;10050567;28;20033;-66
2022/10/04 05:16:36;;;;;;;6.57;3.58;;;11.10;99.90;;;;;;10045434;28;20029;-67
2022/10/04 05:21:29;;;;;;;5.05;3.20;;;11.00;99.90;;;;;;10045180;28;20068;-66
2022/10/04 05:26:26;;;;;;;5.70;3.30;;;11.00;99.90;;;;;;10042517;28;20013;-66
2022/10/04 05:31:22;;;;;;;5.10;3.40;;;11.00;99.90;;;;;;10043351;28;20519;-67
2022/10/04 05:36:42;;;;;;;5.05;3.17;;;11.10;99.90;;;;;;10027856;28;20034;-68
2022/10/04 05:41:48;;;;;;;7.53;3.58;;;11.10;99.90;;;;;;10042482;28;20041;-67
2022/10/04 05:46:38;;;;;;;6.40;3.65;;;11.00;99.90;;;;;;10047876;28;20048;-68
2022/10/04 05:51:36;;;;;;;9.52;5.13;;;11.00;99.90;;;;;;10050184;28;20053;-65
2022/10/04 05:56:30;;;;;;;11.48;6.07;;;10.80;99.90;;;;;;10042854;28;20021;-66
2022/10/04 06:01:41;;;;;;;14.68;7.15;;;10.60;99.90;;;;;;10034371;28;20076;-67
2022/10/04 06:06:43;;;;;;;13.98;5.63;;;10.70;99.90;;;;;;10023305;28;20038;-67
2022/10/04 06:11:33;;;;;;;9.82;5.68;;;10.60;99.90;;;;;;10046279;28;20041;-68
2022/10/04 06:16:36;;;;;;;11.00;4.85;;;10.60;99.90;;;;;;10040892;28;20504;-67
2022/10/04 06:21:28;;;;;;;8.15;4.25;;;10.60;99.90;;;;;;10041859;28;20104;-68
2022/10/04 06:26:24;;;;;;;9.13;4.22;;;10.90;99.90;;;;;;10045384;28;20026;-67
2022/10/04 06:31:23;;;;;;;7.88;4.13;;;11.10;99.90;;;;;;10056697;28;20068;-68
2022/10/04 06:36:13;;;;;;;10.07;5.43;;;11.30;99.90;;;;;;10046218;28;20017;-67
2022/10/04 06:41:22;;;;;;;9.95;4.85;;;11.40;99.90;;;;;;10056657;28;20041;-63
2022/10/04 06:46:42;;;;;;;12.15;5.35;;;11.40;99.90;;;;;;10052647;28;20028;-63
2022/10/04 06:52:04;;;;;;;8.50;5.18;;;11.40;99.90;;;;;;10055423;28;20371;-62
2022/10/04 06:57:13;;;;;;;11.60;5.65;;;11.50;99.90;;;;;;10055096;28;20029;-64
2022/10/04 07:02:50;;;;;;;9.93;5.60;;;11.50;99.90;;;;;;10056932;28;20029;-64
2022/10/04 07:07:46;;;;;;;9.40;4.93;;;11.50;99.90;;;;;;10033634;28;20045;-65
2022/10/04 07:12:41;;;;;;;10.30;5.03;;;11.50;99.90;;;;;;10053464;28;20048;-63
2022/10/04 07:17:39;;;;;;;9.90;4.77;;;11.40;99.90;;;;;;10054964;28;20075;-65
2022/10/04 07:22:44;;;;;;;10.88;5.32;;;11.30;99.90;;;;;;10048096;28;20088;-68
2022/10/04 07:33:23;;;;;;;7.90;4.93;;;11.70;99.90;;;;;;10051161;28;20377;-65
2022/10/04 07:38:16;;;;;;;13.07;6.38;;;11.80;99.90;;;;;;10047882;28;20018;-64
2022/10/04 07:43:21;;;;;;;12.30;6.00;;;11.70;99.90;;;;;;10042368;28;20056;-63
2022/10/04 07:48:22;;;;;;;10.82;6.53;;;11.80;99.90;;;;;;10044285;28;20050;-65
2022/10/04 07:53:25;;;;;;;12.70;5.90;;;12.00;99.90;;;;;;10044431;28;20048;-67
2022/10/04 07:58:33;;;;;;;9.48;5.90;;;11.90;99.90;;;;;;10047577;28;20090;-67
2022/10/04 08:04:00;;;;;;;10.57;6.07;;;12.00;99.90;;;;;;10051720;28;20192;-65
2022/10/04 08:09:12;;;;;;;12.20;6.13;;;11.70;99.90;;;;;;10049868;28;20022;-65
2022/10/04 08:14:23;;;;;;;14.48;7.72;;;11.70;99.90;;;;;;10039949;28;20137;-64
2022/10/04 08:19:37;;;;;;;15.48;7.25;;;11.90;99.90;;;;;;10032782;28;20400;-65
2022/10/04 08:24:53;;;;;;;13.32;6.40;;;12.10;99.90;;;;;;10036504;28;20090;-64
2022/10/04 08:29:46;;;;;;;;;;;12.10;99.90;;;;;;9999379;28;20096;-65
2022/10/04 08:34:58;;;;;;;7.40;4.82;;;11.90;99.90;;;;;;10052880;28;19916;-66
2022/10/04 08:40:11;;;;;;;9.48;5.15;;;12.20;99.90;;;;;;10048674;28;20021;-63
2022/10/04 08:45:02;;;;;;;10.18;6.00;;;12.50;99.90;;;;;;10036906;28;20095;-63
2022/10/04 08:50:02;;;;;;;10.45;6.07;;;12.50;99.90;;;;;;10049050;28;20120;-64
2022/10/04 08:55:19;;;;;;;10.40;5.90;;;12.30;99.90;;;;;;10045576;28;20045;-64
2022/10/04 09:00:34;;;;;;;15.75;6.45;;;12.10;99.90;;;;;;10037661;28;20034;-65
2022/10/04 09:05:28;;;;;;;10.35;5.80;;;12.00;99.90;;;;;;10040887;28;20017;-64
2022/10/04 09:11:09;;;;;;;10.95;7.20;;;12.40;99.90;;;;;;10046363;28;20244;-63
2022/10/04 09:16:16;;;;;;;14.52;6.65;;;12.90;99.90;;;;;;9930626;28;20445;-66
2022/10/04 09:21:14;;;;;;;12.93;6.15;;;13.00;99.90;;;;;;10020365;28;20408;-67
2022/10/04 09:26:32;;;;;;;10.20;6.32;;;13.30;99.90;;;;;;10050998;28;20029;-67
2022/10/04 09:31:26;;;;;;;12.13;7.07;;;13.20;99.90;;;;;;10051353;28;20049;-66
2022/10/04 09:36:20;;;;;;;13.90;8.18;;;13.50;99.90;;;;;;10047245;28;20107;-64
2022/10/04 09:41:26;;;;;;;10.93;6.18;;;13.30;99.90;;;;;;10048435;28;20036;-64
2022/10/04 09:46:38;;;;;;;11.55;6.15;;;13.20;99.90;;;;;;10034498;28;20720;-68
2022/10/04 09:51:50;;;;;;;13.70;7.72;;;13.30;99.90;;;;;;10029253;28;20149;-69
2022/10/04 09:57:07;;;;;;;14.02;8.23;;;13.50;99.90;;;;;;10036742;28;20110;-63
2022/10/04 10:02:37;;;;;;;13.00;7.60;;;13.70;99.90;;;;;;10037981;28;20660;-64
2022/10/04 10:07:46;;;;;;;14.82;9.20;;;13.80;99.90;;;;;;10046101;28;20088;-65
2022/10/04 10:18:23;;;;;;;13.90;7.65;;;13.90;99.90;;;;;;10042999;28;20040;-66
2022/10/04 10:23:38;;;;;;;12.50;7.07;;;14.00;99.90;;;;;;10051520;28;20433;-69
2022/10/04 10:29:05;;;;;;;10.93;6.97;;;14.20;99.90;;;;;;10045777;28;20103;-64
2022/10/04 10:34:29;;;;;;;15.27;9.27;;;14.40;99.90;;;;;;10056895;28;20046;-65
2022/10/04 10:40:04;;;;;;;12.48;7.13;;;14.40;99.90;;;;;;10057947;28;20099;-64
2022/10/04 10:45:22;;;;;;;13.43;7.18;;;14.50;99.90;;;;;;10055053;28;20021;-67
2022/10/04 10:51:02;;;;;;;11.38;6.57;;;14.80;99.90;;;;;;10058210;28;20129;-66
2022/10/04 10:56:07;;;;;;;12.32;6.50;;;14.70;99.90;;;;;;10053667;28;20525;-67
2022/10/04 11:01:12;;;;;;;14.55;6.55;;;14.60;99.90;;;;;;10050057;28;20030;-68
2022/10/04 11:06:25;;;;;;;10.45;6.07;;;14.80;99.90;;;;;;10053988;28;20060;-65
2022/10/04 11:11:40;;;;;;;8.55;5.22;;;15.00;99.90;;;;;;10047411;28;20056;-66
2022/10/04 11:16:57;;;;;;;10.70;6.30;;;15.00;99.90;;;;;;10052275;28;20022;-62
2022/10/04 11:22:18;;;;;;;10.18;5.65;;;15.10;99.90;;;;;;10017007;28;20223;-64
2022/10/04 11:27:16;;;;;;;9.93;5.97;;;15.20;99.90;;;;;;10044043;28;20046;-63
2022/10/04 11:32:29;;;;;;;8.52;5.53;;;15.10;99.90;;;;;;10039078;28;20496;-64
2022/10/04 11:37:54;;;;;;;9.18;5.47;;;15.30;99.90;;;;;;10044481;28;20289;-63
2022/10/04 11:43:19;;;;;;;9.73;5.32;;;15.50;99.90;;;;;;10054084;28;20018;-64
2022/10/04 11:48:24;;;;;;;10.27;6.07;;;15.60;99.90;;;;;;10035183;28;20113;-63
2022/10/04 11:53:33;;;;;;;10.13;5.67;;;15.80;99.90;;;;;;10045271;28;20033;-63
2022/10/04 11:58:45;;;;;;;6.53;4.70;;;16.00;99.90;;;;;;10053640;28;20052;-64
2022/10/04 12:03:36;;;;;;;8.93;3.85;;;16.20;99.90;;;;;;10049787;28;20026;-63
2022/10/04 12:08:50;;;;;;;7.78;5.10;;;16.50;99.90;;;;;;10046389;28;20574;-62
2022/10/04 12:14:25;;;;;;;8.02;4.25;;;16.70;99.90;;;;;;10042995;28;20084;-63
2022/10/04 12:19:40;;;;;;;7.22;3.70;;;16.70;99.90;;;;;;10042555;28;20041;-63
2022/10/04 12:24:48;;;;;;;5.82;3.72;;;16.90;99.90;;;;;;10038529;28;20056;-62
2022/10/04 12:30:19;;;;;;;8.20;5.00;;;17.30;99.90;;;;;;10046908;28;20057;-62
2022/10/04 12:35:13;;;;;;;5.70;3.35;;;17.70;99.90;;;;;;10039033;28;20153;-63
2022/10/04 12:40:41;;;;;;;5.55;4.07;;;18.10;99.90;;;;;;10051802;28;20389;-63
2022/10/04 12:45:55;;;;;;;6.78;3.85;;;18.70;99.90;;;;;;10041338;28;20523;-63
2022/10/04 12:50:45;;;;;;;9.20;5.90;;;19.10;99.90;;;;;;10034624;28;20040;-63
2022/10/04 12:56:21;;;;;;;10.93;6.03;;;19.50;99.90;;;;;;10035642;28;20029;-63
2022/10/04 13:01:26;;;;;;;9.35;4.47;;;19.90;99.90;;;;;;10030254;28;20040;-61
2022/10/04 13:06:45;;;;;;;4.55;3.40;;;20.20;99.90;;;;;;10046661;28;20800;-62
2022/10/04 13:11:57;;;;;;;4.30;3.45;;;20.80;99.90;;;;;;10052986;28;20224;-63
2022/10/04 13:17:10;;;;;;;4.32;3.03;;;21.30;99.90;;;;;;10047222;28;20064;-64
2022/10/04 13:22:05;;;;;;;3.58;2.83;;;21.80;99.90;;;;;;10042905;28;20418;-62
2022/10/04 13:27:13;;;;;;;5.32;2.17;;;22.20;99.90;;;;;;10048098;28;20021;-62
2022/10/04 13:32:16;;;;;;;3.53;2.42;;;22.60;99.90;;;;;;10046520;28;20610;-62
2022/10/04 13:37:35;;;;;;;5.10;2.70;;;23.10;99.90;;;;;;10048709;28;20020;-62
2022/10/04 13:42:57;;;;;;;3.35;2.50;;;23.60;99.90;;;;;;10038894;28;20281;-62
2022/10/04 13:48:04;;;;;;;3.40;2.45;;;24.20;98.70;;;;;;10056838;28;20096;-62
2022/10/04 13:58:58;;;;;;;5.38;2.65;;;25.30;96.70;;;;;;10050243;28;20116;-63
2022/10/04 14:03:57;;;;;;;4.72;2.70;;;25.60;96.50;;;;;;10053342;28;20040;-64
2022/10/04 14:09:06;;;;;;;4.47;2.63;;;26.00;95.40;;;;;;10040100;28;20407;-64
2022/10/04 14:14:09;;;;;;;3.88;2.88;;;26.40;94.80;;;;;;10050846;28;20094;-63
2022/10/04 14:19:27;;;;;;;6.57;3.00;;;26.70;93.70;;;;;;10048505;28;20033;-65
2022/10/04 14:24:35;;;;;;;4.15;2.72;;;27.40;92.60;;;;;;10044359;28;20037;-63
2022/10/04 14:29:50;;;;;;;6.55;2.60;;;27.90;91.30;;;;;;10033666;28;20042;-63
2022/10/04 14:34:54;;;;;;;5.25;3.00;;;28.30;90.00;;;;;;10054841;28;20220;-63
2022/10/04 14:39:53;;;;;;;4.25;2.17;;;29.50;87.10;;;;;;10048560;28;20110;-63
2022/10/04 14:45:03;;;;;;;4.15;2.08;;;30.50;82.50;;;;;;10052482;28;20026;-64
2022/10/04 14:50:17;;;;;;;4.25;2.67;;;30.70;77.30;;;;;;10052627;28;20033;-64
2022/10/04 14:55:28;;;;;;;4.25;1.77;;;31.20;73.40;;;;;;10058086;28;20185;-64
2022/10/04 15:00:30;;;;;;;5.10;2.00;;;31.10;72.00;;;;;;10056222;28;20024;-62
2022/10/04 15:05:44;;;;;;;2.55;1.85;;;31.70;69.80;;;;;;10056801;28;20014;-64
2022/10/04 15:10:44;;;;;;;2.55;2.17;;;32.20;66.70;;;;;;10058031;28;20041;-68
2022/10/04 15:15:53;;;;;;;3.97;2.30;;;32.40;66.00;;;;;;10057054;28;20069;-63
2022/10/04 15:20:57;;;;;;;5.20;2.03;;;32.80;64.10;;;;;;10057760;28;20033;-63
2022/10/04 15:25:56;;;;;;;2.83;1.80;;;32.90;62.80;;;;;;10042516;28;20017;-62
2022/10/04 15:30:46;;;;;;;2.55;2.00;;;33.00;62.20;;;;;;10042491;28;20045;-64
2022/10/04 15:35:46;;;;;;;2.40;2.10;;;33.30;61.50;;;;;;10053608;28;20079;-63
2022/10/04 15:41:05;;;;;;;2.92;2.30;;;33.30;60.80;;;;;;10046329;28;20017;-65
2022/10/04 15:46:37;;;;;;;3.70;1.65;;;32.90;59.70;;;;;;10039454;28;20411;-66
2022/10/04 15:51:40;;;;;;;3.72;2.00;;;32.60;59.20;;;;;;10025526;28;20048;-62
2022/10/04 15:56:40;;;;;;;4.78;2.78;;;32.50;59.40;;;;;;10030376;28;20028;-61
2022/10/04 16:01:53;;;;;;;4.55;2.13;;;32.20;59.20;;;;;;10040376;28;20057;-61
2022/10/04 16:06:52;;;;;;;4.18;1.92;;;31.50;59.10;;;;;;10049075;28;20163;-64
2022/10/04 16:11:56;;;;;;;4.68;2.25;;;27.40;62.20;;;;;;10049255;28;20037;-65
2022/10/04 16:16:58;;;;;;;3.45;3.00;;;24.00;67.10;;;;;;10052985;28;20066;-65
2022/10/04 16:21:53;;;;;;;4.68;2.45;;;22.30;69.60;;;;;;10048007;28;20026;-64
2022/10/04 16:26:50;;;;;;;;;;;21.50;70.50;;;;;;10046039;28;20032;-63
2022/10/04 16:31:52;;;;;;;2.58;2.17;;;21.00;71.20;;;;;;10047381;28;20338;-65
2022/10/04 16:36:51;;;;;;;5.03;2.10;;;20.60;71.50;;;;;;10045349;28;20764;-62
2022/10/04 16:41:52;;;;;;;3.28;1.83;;;20.40;72.00;;;;;;10048845;28;20368;-64
2022/10/04 16:46:44;;;;;;;4.00;2.53;;;20.20;72.60;;;;;;10047155;28;20022;-64
2022/10/04 16:51:50;;;;;;;2.50;2.20;;;20.00;73.40;;;;;;10047169;28;20435;-61
2022/10/04 16:56:56;;;;;;;6.68;3.30;;;19.90;74.30;;;;;;10043285;28;20482;-62
2022/10/04 17:02:12;;;;;;;6.95;5.20;;;19.60;75.00;;;;;;10052652;28;20469;-62
2022/10/04 17:07:10;;;;;;;7.13;3.45;;;19.50;76.10;;;;;;10047650;28;20239;-61
2022/10/04 17:12:15;;;;;;;5.00;3.20;;;19.40;76.70;;;;;;10045745;28;20072;-65
2022/10/04 17:17:28;;;;;;;6.03;3.50;;;19.30;77.60;;;;;;10037393;28;20131;-64
2022/10/04 17:22:41;;;;;;;6.68;3.63;;;19.20;78.80;;;;;;10034281;28;20030;-64
2022/10/04 17:27:38;;;;;;;7.63;4.63;;;19.10;79.90;;;;;;10042593;28;20464;-64
2022/10/04 17:32:49;;;;;;;9.27;5.32;;;18.90;80.60;;;;;;10046901;28;20049;-64
2022/10/04 17:37:55;;;;;;;11.13;5.65;;;18.90;82.10;;;;;;10043027;28;20028;-64
2022/10/04 17:43:04;;;;;;;13.85;6.72;;;18.70;82.90;;;;;;10044046;28;20017;-64
2022/10/04 17:58:40;;;;;;;11.77;5.75;;;18.40;86.90;;;;;;10044916;28;20506;-65
2022/10/04 18:03:37;;;;;;;10.57;5.25;;;18.20;88.50;;;;;;10033466;28;20121;-64
2022/10/04 18:08:55;;;;;;;11.25;5.50;;;18.10;90.00;;;;;;10048756;28;20018;-64
2022/10/04 18:13:58;;;;;;;10.68;5.72;;;18.10;91.00;;;;;;10029521;28;20405;-63
2022/10/04 18:18:49;;;;;;;13.20;5.85;;;18.00;91.50;;;;;;10041756;28;20026;-65
2022/10/04 18:23:54;;;;;;;13.15;6.15;;;17.90;92.20;;;;;;10051376;28;20033;-67
2022/10/04 18:28:47;;;;;;;16.37;6.53;;;17.90;93.10;;;;;;10047814;28;20053;-62
2022/10/04 18:33:49;;;;;;;13.30;6.97;;;17.80;93.70;;;;;;10043878;28;20181;-62
2022/10/04 18:38:44;;;;;;;13.43;7.40;;;17.80;94.50;;;;;;10040915;28;20024;-64
2022/10/04 18:43:49;;;;;;;13.60;6.65;;;17.70;95.10;;;;;;10052927;28;20017;-65
2022/10/04 18:48:54;;;;;;;15.07;7.90;;;17.60;95.80;;;;;;10034275;28;20064;-66
2022/10/04 18:54:08;;;;;;;12.75;7.60;;;17.60;96.30;;;;;;10039606;28;20536;-65
2022/10/04 19:04:33;;;;;;;13.52;6.43;;;17.50;97.50;;;;;;10055717;28;20033;-63
2022/10/04 19:09:38;;;;;;;13.05;7.82;;;17.40;97.70;;;;;;10049077;28;20444;-61
2022/10/04 19:14:39;;;;;;;15.10;8.93;;;17.30;98.20;;;;;;10038105;28;20033;-62
2022/10/04 19:19:50;;;;;;;12.25;7.40;;;17.30;98.50;;;;;;10052012;28;20271;-62
2022/10/04 19:25:11;;;;;;;12.43;7.15;;;17.10;98.80;;;;;;10056873;28;20301;-63
2022/10/04 19:30:13;;;;;;;16.23;7.85;;;17.10;99.10;;;;;;10043444;28;20049;-64
2022/10/04 19:35:44;;;;;;;11.13;6.85;;;17.00;99.50;;;;;;10036944;28;20073;-65
2022/10/04 19:41:25;;;;;;;14.32;6.70;;;16.90;99.80;;;;;;10013040;28;20037;-64
2022/10/04 19:46:42;;;;;;;11.00;6.55;;;16.90;99.90;;;;;;9963563;28;20851;-63
2022/10/04 19:51:44;;;;;;;16.10;8.35;;;16.80;99.90;;;;;;10051395;28;20029;-65
2022/10/04 19:56:43;;;;;;;21.35;11.48;;;16.80;99.90;;;;;;10052792;28;20029;-61
2022/10/04 20:01:35;;;;;;;17.42;8.95;;;16.70;99.90;;;;;;10051123;28;20025;-68
2022/10/04 20:06:26;;;;;;;17.05;8.65;;;16.60;99.90;;;;;;10051086;28;20029;-62
2022/10/04 20:11:19;;;;;;;15.30;8.52;;;16.60;99.90;;;;;;10033746;28;20098;-61
2022/10/04 20:16:09;;;;;;;17.42;8.38;;;16.50;99.90;;;;;;10044424;28;20293;-64
2022/10/04 20:21:00;;;;;;;15.73;8.63;;;16.50;99.90;;;;;;10040920;28;20217;-62
2022/10/04 20:25:54;;;;;;;14.73;8.68;;;16.50;99.90;;;;;;10040830;28;20033;-62
2022/10/04 20:30:51;;;;;;;16.58;8.40;;;16.40;99.90;;;;;;10036892;28;20041;-62
2022/10/04 20:36:09;;;;;;;15.45;8.98;;;16.40;99.90;;;;;;10051420;28;20035;-64
2022/10/04 20:41:00;;;;;;;19.67;9.30;;;16.40;99.90;;;;;;10043978;28;20458;-63
2022/10/04 20:45:56;;;;;;;14.27;8.85;;;16.30;99.90;;;;;;10052473;28;20067;-63
2022/10/04 20:50:51;;;;;;;13.10;8.57;;;16.30;99.90;;;;;;10045235;28;20024;-62
2022/10/04 20:55:44;;;;;;;18.10;8.10;;;16.20;99.90;;;;;;10031161;28;20029;-63
2022/10/04 21:00:34;;;;;;;18.95;7.88;;;16.20;99.90;;;;;;10049351;28;20310;-64
2022/10/04 21:05:25;;;;;;;16.88;9.63;;;16.20;99.90;;;;;;10055224;28;20259;-62
2022/10/04 21:10:18;;;;;;;15.98;8.68;;;16.10;99.90;;;;;;10057182;28;20451;-62
2022/10/04 21:15:15;;;;;;;21.60;8.57;;;16.00;99.90;;;;;;10053945;28;20025;-61
2022/10/04 21:20:13;;;;;;;16.27;8.15;;;15.90;99.90;;;;;;10053574;28;20029;-61
2022/10/04 21:25:27;;;;;;;14.57;7.50;;;15.80;99.90;;;;;;10050914;28;20033;-64
2022/10/04 21:30:18;;;;;;;12.15;7.40;;;15.80;99.90;;;;;;10038902;28;20048;-62
2022/10/04 21:35:11;;;;;;;12.30;7.25;;;15.80;99.90;;;;;;10046663;28;20061;-60
2022/10/04 21:40:03;;;;;;;16.88;9.02;;;15.80;99.90;;;;;;10037479;28;20026;-63
2022/10/04 21:44:54;;;;;;;19.38;10.98;;;15.80;99.90;;;;;;10041322;28;20447;-60
2022/10/04 21:49:44;;;;;;;16.73;9.95;;;15.70;99.90;;;;;;10032545;28;20033;-60
2022/10/04 21:54:35;;;;;;;18.52;10.32;;;15.60;99.90;;;;;;10035088;28;20123;-60
2022/10/04 21:59:26;;;;;;;19.42;9.52;;;15.60;99.90;;;;;;10041671;28;20060;-60
2022/10/04 22:04:17;;;;;;;19.35;9.18;;;15.60;99.90;;;;;;10030939;28;20026;-60
2022/10/04 22:09:08;;;;;;;15.35;8.48;;;15.50;99.90;;;;;;10054093;28;20302;-62
2022/10/04 22:13:59;;;;;;;17.88;9.60;;;15.30;99.90;;;;;;10044546;28;20056;-63
2022/10/04 22:18:49;;;;;;;16.75;8.27;;;15.30;99.90;;;;;;10056795;28;20045;-63
2022/10/04 22:23:42;;;;;;;16.17;9.25;;;15.40;99.90;;;;;;10057553;28;20123;-64
2022/10/04 22:28:33;;;;;;;15.75;9.30;;;15.30;99.90;;;;;;10055305;28;20541;-62
2022/10/04 22:33:38;;;;;;;18.92;10.00;;;15.20;99.90;;;;;;10047758;28;20045;-62
2022/10/04 22:38:29;;;;;;;12.37;8.83;;;15.20;99.90;;;;;;10042343;28;20029;-64
2022/10/04 22:43:19;;;;;;;16.83;8.20;;;15.20;99.90;;;;;;10039509;28;20049;-62
2022/10/04 22:48:14;;;;;;;16.42;8.88;;;15.10;99.90;;;;;;10049994;28;20021;-63
2022/10/04 22:53:15;;;;;;;16.77;8.05;;;15.10;99.90;;;;;;10040832;28;20041;-62
2022/10/04 22:58:05;;;;;;;13.10;8.18;;;15.00;99.90;;;;;;10047056;28;20028;-63
2022/10/04 23:02:56;;;;;;;11.00;7.47;;;15.00;99.90;;;;;;10038361;28;20040;-61
2022/10/04 23:07:48;;;;;;;10.48;6.95;;;15.10;99.90;;;;;;10046483;28;20447;-62
2022/10/04 23:12:39;;;;;;;11.45;6.65;;;15.00;99.90;;;;;;10050490;28;20087;-62
2022/10/04 23:17:36;;;;;;;10.05;6.07;;;14.90;99.90;;;;;;10037120;28;20056;-62
2022/10/04 23:22:30;;;;;;;16.88;7.22;;;14.90;99.90;;;;;;10035318;28;20630;-62
2022/10/04 23:27:21;;;;;;;11.48;5.50;;;14.80;99.90;;;;;;10044432;28;20050;-61
2022/10/04 23:32:16;;;;;;;9.05;6.28;;;14.80;99.90;;;;;;10036681;28;20128;-62
2022/10/04 23:37:20;;;;;;;9.23;5.18;;;14.70;99.90;;;;;;10046460;28;20416;-62
2022/10/04 23:42:24;;;;;;;9.48;5.43;;;14.70;99.90;;;;;;10051979;28;20060;-62
2022/10/04 23:47:17;;;;;;;7.82;4.90;;;14.60;99.90;;;;;;10054140;28;20041;-63
2022/10/04 23:52:23;;;;;;;6.80;5.35;;;14.60;99.90;;;;;;10046150;28;20083;-61
2022/10/04 23:57:24;;;;;;;9.00;4.82;;;14.50;99.90;;;;;;10045392;28;20025;-62
